TimeCDT,TemperatureF,Dew PointF,Humidity,Sea Level PressureIn,VisibilityMPH,Wind Direction,Wind SpeedMPH,Gust SpeedMPH,PrecipitationIn,Events,Conditions,WindDirDegrees,DateUTC
12:54 AM,41.0,26.1,55,30.16,10.0,Calm,Calm,-,N/A,,Clear,0,2011-10-28 05:54:00
1:54 AM,37.9,28.9,70,30.17,10.0,Calm,Calm,-,N/A,,Clear,0,2011-10-28 06:54:00
2:54 AM,35.1,28.0,76,30.18,10.0,WNW,3.5,-,N/A,,Clear,290,2011-10-28 07:54:00
3:54 AM,36.0,27.0,70,30.17,10.0,NW,3.5,-,N/A,,Clear,310,2011-10-28 08:54:00
4:54 AM,37.4,28.4,70,30.17,10.0,Calm,Calm,-,N/A,,Clear,0,2011-10-28 09:54:00
5:54 AM,33.8,26.6,75,30.17,10.0,SW,3.5,-,N/A,,Clear,230,2011-10-28 10:54:00
6:54 AM,35.1,28.0,76,30.19,10.0,Calm,Calm,-,N/A,,Clear,0,2011-10-28 11:54:00
7:54 AM,36.0,28.0,73,30.20,10.0,Calm,Calm,-,N/A,,Clear,0,2011-10-28 12:54:00
8:54 AM,39.9,32.0,73,30.22,10.0,Calm,Calm,-,N/A,,Clear,0,2011-10-28 13:54:00
10:54 AM,50.0,30.0,46,30.20,10.0,WSW,6.9,-,N/A,,Partly Cloudy,250,2011-10-28 15:54:00
11:54 AM,55.0,26.1,33,30.19,10.0,West,10.4,-,N/A,,Clear,260,2011-10-28 16:54:00
12:54 PM,55.9,26.1,32,30.16,10.0,WSW,12.7,-,N/A,,Clear,240,2011-10-28 17:54:00
1:54 PM,57.2,21.2,25,30.13,10.0,West,10.4,19.6,N/A,,Partly Cloudy,270,2011-10-28 18:54:00
2:54 PM,57.9,23.0,26,30.11,10.0,West,9.2,-,N/A,,Scattered Clouds,270,2011-10-28 19:54:00
3:54 PM,57.9,23.0,26,30.09,10.0,West,10.4,-,N/A,,Partly Cloudy,270,2011-10-28 20:54:00
4:54 PM,57.0,24.1,28,30.07,10.0,SW,9.2,-,N/A,,Clear,230,2011-10-28 21:54:00
5:54 PM,54.0,24.1,31,30.07,10.0,WSW,5.8,-,N/A,,Overcast,240,2011-10-28 22:54:00
6:54 PM,54.0,28.0,37,30.09,10.0,NW,12.7,21.9,0.00,Rain,Light Rain,320,2011-10-28 23:54:00
7:54 PM,51.8,35.6,54,30.10,10.0,Calm,Calm,-,N/A,Rain,Light Rain,0,2011-10-29 00:54:00
8:54 PM,45.0,37.0,74,30.11,10.0,Calm,Calm,-,0.02,,Partly Cloudy,0,2011-10-29 01:54:00
9:54 PM,41.0,36.0,82,30.12,10.0,West,3.5,-,N/A,,Clear,270,2011-10-29 02:54:00
10:54 PM,39.9,33.1,77,30.13,10.0,WNW,5.8,-,N/A,,Clear,290,2011-10-29 03:54:00
11:54 PM,41.0,30.0,65,30.12,10.0,West,4.6,-,N/A,,Clear,280,2011-10-29 04:54:00